createdAt,value
2023-01-02T00:02:02.412Z,100485.75
2023-01-02T00:04:28.724Z,100484.59
2023-01-02T00:06:55.295Z,100479.34
2023-01-02T00:09:21.669Z,100477.34
2023-01-02T00:11:48.060Z,100464.88
2023-01-02T00:14:14.587Z,100468.94
2023-01-02T00:16:41.226Z,100462.09
2023-01-02T00:19:08.828Z,100464.50
2023-01-02T00:21:35.475Z,100472.56
2023-01-02T00:24:02.023Z,100474.97
2023-01-02T00:26:30.190Z,100476.56
2023-01-02T00:28:56.705Z,100470.16
2023-01-02T00:31:23.103Z,100458.50
2023-01-02T00:33:49.571Z,100454.47
2023-01-02T00:36:16.496Z,100453.69
2023-01-02T00:38:42.858Z,100456.09
2023-01-02T00:41:09.618Z,100464.56
2023-01-02T00:43:37.392Z,100457.72
2023-01-02T00:46:10.853Z,100458.16
2023-01-02T00:48:37.936Z,100455.72
2023-01-02T00:51:04.426Z,100457.75
2023-01-02T00:53:30.878Z,100454.53
2023-01-02T00:55:59.752Z,100454.13
2023-01-02T00:58:26.143Z,100463.78
2023-01-02T01:00:52.887Z,100458.56
2023-01-02T01:03:19.536Z,100469.44
2023-01-02T01:05:45.941Z,100468.63
2023-01-02T01:08:12.544Z,100461.38
2023-01-02T01:10:39.537Z,100459.38
2023-01-02T01:13:06.682Z,100463.81
2023-01-02T01:15:34.323Z,100465.41
2023-01-02T01:18:01.061Z,100461.41
2023-01-02T01:20:27.635Z,100461.41
2023-01-02T01:22:54.040Z,100458.97
2023-01-02T01:25:21.943Z,100467.81
2023-01-02T01:27:48.343Z,100469.03
2023-01-02T01:30:14.841Z,100463.78
2023-01-02T01:32:41.411Z,100461.00
2023-01-02T01:35:08.123Z,100454.94
2023-01-02T01:37:34.504Z,100452.94
2023-01-02T01:40:01.299Z,100461.38
2023-01-02T01:42:34.490Z,100462.16
2023-01-02T01:45:01.594Z,100462.16
2023-01-02T01:47:40.230Z,100456.13
2023-01-02T01:50:12.326Z,100455.72
2023-01-02T01:52:44.884Z,100450.91
2023-01-02T01:55:19.160Z,100461.72
2023-01-02T01:57:51.625Z,100458.91
2023-01-02T02:00:20.168Z,100462.53
2023-01-02T02:02:52.385Z,100462.53
2023-01-02T02:05:23.746Z,100461.75
2023-01-02T02:08:34.306Z,100462.53
2023-01-02T02:11:01.962Z,100466.53
2023-01-02T02:13:31.413Z,100466.94
2023-01-02T02:16:12.051Z,100463.31
2023-01-02T02:18:46.584Z,100463.72
2023-01-02T02:21:15.964Z,100465.75
2023-01-02T02:23:54.365Z,100460.91
2023-01-02T02:26:32.882Z,100468.94
2023-01-02T02:29:27.528Z,100463.72
2023-01-02T02:32:04.515Z,100463.31
2023-01-02T02:34:49.003Z,100457.69
2023-01-02T02:37:44.690Z,100462.50
2023-01-02T02:40:42.926Z,100459.66
2023-01-02T02:43:27.623Z,100449.63
2023-01-02T02:46:19.379Z,100453.66
2023-01-02T02:49:12.395Z,100453.63
2023-01-02T02:51:48.678Z,100447.56
2023-01-02T02:54:39.958Z,100457.22
2023-01-02T02:57:08.623Z,100448.41
2023-01-02T02:59:37.322Z,100438.34
2023-01-02T03:02:05.360Z,100442.78
2023-01-02T03:04:32.353Z,100441.94
2023-01-02T03:07:16.747Z,100441.16
2023-01-02T03:09:54.684Z,100448.00
2023-01-02T03:12:43.662Z,100454.84
2023-01-02T03:15:20.343Z,100444.78
2023-01-02T03:17:55.702Z,100450.84
2023-01-02T03:20:28.496Z,100452.03
2023-01-02T03:23:01.104Z,100453.25
2023-01-02T03:25:27.753Z,100433.94
2023-01-02T03:27:57.487Z,100421.09
2023-01-02T03:30:24.148Z,100421.50
2023-01-02T03:32:56.656Z,100415.06
2023-01-02T03:35:50.840Z,100411.84
2023-01-02T03:38:27.448Z,100411.03
2023-01-02T03:41:05.494Z,100423.91
2023-01-02T03:43:35.754Z,100437.56
2023-01-02T03:46:29.301Z,100447.22
2023-01-02T03:49:06.311Z,100429.94
2023-01-02T03:51:34.475Z,100446.00
2023-01-02T03:54:02.824Z,100460.09
2023-01-02T03:56:51.093Z,100471.75
2023-01-02T03:59:36.338Z,100472.56
2023-01-02T04:02:15.609Z,100470.13
2023-01-02T04:04:55.496Z,100478.56
2023-01-02T04:07:37.073Z,100476.13
2023-01-02T04:10:06.597Z,100473.31
2023-01-02T04:12:36.681Z,100472.13
2023-01-02T04:15:09.829Z,100464.47
2023-01-02T04:17:44.541Z,100457.22
2023-01-02T04:20:17.392Z,100465.63
2023-01-02T04:22:52.215Z,100467.63
2023-01-02T04:25:19.352Z,100469.25
2023-01-02T04:27:57.084Z,100456.75
2023-01-02T04:30:23.489Z,100474.44
2023-01-02T04:32:51.590Z,100477.22
2023-01-02T04:35:23.189Z,100482.03
2023-01-02T04:37:49.895Z,100481.25
2023-01-02T04:40:24.607Z,100473.19
2023-01-02T04:42:51.319Z,100478.78
2023-01-02T04:45:17.839Z,100469.56
2023-01-02T04:47:44.712Z,100463.94
2023-01-02T04:50:12.928Z,100465.91
2023-01-02T04:52:39.349Z,100457.50
2023-01-02T04:55:09.828Z,100459.06
2023-01-02T04:57:37.541Z,100453.84
2023-01-02T05:00:05.402Z,100452.25
2023-01-02T05:02:39.364Z,100464.28
2023-01-02T05:05:07.615Z,100469.50
2023-01-02T05:07:34.790Z,100466.69
2023-01-02T05:10:01.190Z,100470.28
2023-01-02T05:12:27.921Z,100474.75
2023-01-02T05:14:54.366Z,100475.53
2023-01-02T05:17:20.735Z,100465.09
2023-01-02T05:19:47.387Z,100469.09
2023-01-02T05:22:32.592Z,100475.53
2023-01-02T05:24:59.113Z,100481.59
2023-01-02T05:27:25.572Z,100483.19
2023-01-02T05:29:51.987Z,100487.59
2023-01-02T05:32:20.381Z,100492.06
2023-01-02T05:34:46.704Z,100497.28
2023-01-02T05:37:13.046Z,100500.50
2023-01-02T05:39:39.485Z,100510.53
2023-01-02T05:42:06.203Z,100509.34
2023-01-02T05:44:32.897Z,100501.72
2023-01-02T05:46:59.287Z,100504.13
2023-01-02T05:49:25.732Z,100504.53
2023-01-02T05:51:52.134Z,100508.56
2023-01-02T05:54:18.902Z,100508.56
2023-01-02T05:56:45.284Z,100514.56
2023-01-02T05:59:15.064Z,100512.13
2023-01-02T06:01:41.668Z,100514.94
2023-01-02T06:04:09.227Z,100510.13
2023-01-02T06:06:39.007Z,100514.16
2023-01-02T06:09:07.463Z,100508.13
2023-01-02T06:11:34.757Z,100520.16
2023-01-02T06:14:01.151Z,100515.34
2023-01-02T06:16:27.793Z,100514.56
2023-01-02T06:18:55.213Z,100527.81
2023-01-02T06:21:22.599Z,100521.38
2023-01-02T06:23:53.066Z,100531.41
2023-01-02T06:26:20.541Z,100527.00
2023-01-02T06:28:51.089Z,100522.59
2023-01-02T06:31:21.923Z,100518.56
2023-01-02T06:33:49.839Z,100537.84
2023-01-02T06:36:18.084Z,100539.84
2023-01-02T06:38:45.589Z,100524.59
2023-01-02T06:41:13.310Z,100538.66
2023-01-02T06:43:48.097Z,100545.09
2023-01-02T06:46:16.726Z,100555.19
2023-01-02T06:48:43.524Z,100539.91
2023-01-02T06:51:16.191Z,100541.91
2023-01-02T06:53:43.467Z,100551.56
2023-01-02T06:56:11.079Z,100529.88
2023-01-02T06:58:38.354Z,100546.75
2023-01-02T07:01:22.439Z,100539.91
2023-01-02T07:03:49.181Z,100551.56
2023-01-02T07:06:18.382Z,100544.34
2023-01-02T07:08:45.467Z,100545.13
2023-01-02T07:11:17.539Z,100547.53
2023-01-02T07:13:45.367Z,100553.16
2023-01-02T07:16:14.735Z,100545.91
2023-01-02T07:18:41.952Z,100553.97
2023-01-02T07:21:10.547Z,100560.81
2023-01-02T07:23:37.078Z,100550.75
2023-01-02T07:26:05.367Z,100558.41
2023-01-02T07:28:32.948Z,100561.59
2023-01-02T07:31:03.186Z,100560.81
2023-01-02T07:33:30.823Z,100560.00
2023-01-02T07:36:02.097Z,100568.03
2023-01-02T07:38:28.966Z,100572.06
2023-01-02T07:40:55.615Z,100576.88
2023-01-02T07:43:22.606Z,100588.13
2023-01-02T07:45:50.596Z,100581.69
2023-01-02T07:48:17.839Z,100588.91
2023-01-02T07:50:44.379Z,100579.69
2023-01-02T07:53:10.796Z,100576.47
2023-01-02T07:55:37.173Z,100584.91
2023-01-02T07:58:04.597Z,100588.94
2023-01-02T08:00:31.205Z,100596.53
2023-01-02T08:02:57.769Z,100604.59
2023-01-02T08:05:24.124Z,100612.22
2023-01-02T08:07:50.490Z,100617.84
2023-01-02T08:10:16.956Z,100611.41
2023-01-02T08:12:43.461Z,100625.84
2023-01-02T08:15:10.232Z,100626.25
2023-01-02T08:17:36.827Z,100632.28
2023-01-02T08:20:10.395Z,100635.88
2023-01-02T08:22:37.501Z,100622.56
2023-01-02T08:25:04.460Z,100635.41
2023-01-02T08:27:30.980Z,100638.19
2023-01-02T08:29:58.532Z,100635.34
2023-01-02T08:32:25.305Z,100644.19
2023-01-02T08:34:51.821Z,100652.59
2023-01-02T08:37:18.559Z,100654.53
2023-01-02T08:39:44.911Z,100658.16
2023-01-02T08:42:11.414Z,100657.72
2023-01-02T08:44:38.234Z,100668.94
2023-01-02T08:47:05.469Z,100668.50
2023-01-02T08:49:32.025Z,100678.94
2023-01-02T08:51:58.464Z,100688.59
2023-01-02T08:54:24.849Z,100683.34
2023-01-02T08:56:51.423Z,100684.16
2023-01-02T08:59:17.797Z,100696.56
2023-01-02T09:01:44.479Z,100692.97
2023-01-02T09:04:13.269Z,100702.59
2023-01-02T09:06:42.565Z,100721.84
2023-01-02T09:09:12.309Z,100713.44
2023-01-02T09:11:51.095Z,100721.00
2023-01-02T09:14:19.299Z,100731.50
2023-01-02T09:16:45.915Z,100738.28
2023-01-02T09:19:12.568Z,100745.91
2023-01-02T09:21:38.995Z,100740.69
2023-01-02T09:24:06.184Z,100757.09
2023-01-02T09:26:32.796Z,100763.91
2023-01-02T09:28:59.182Z,100762.69
2023-01-02T09:31:25.801Z,100772.31
2023-01-02T09:33:53.740Z,100783.94
2023-01-02T09:36:20.808Z,100807.19
2023-01-02T09:39:05.686Z,100821.13
2023-01-02T09:41:38.660Z,100814.22
2023-01-02T09:44:18.816Z,100817.31
2023-01-02T09:47:03.711Z,100811.94
2023-01-02T09:49:34.015Z,100831.53
2023-01-02T09:52:00.726Z,100823.38
2023-01-02T09:54:34.966Z,100819.59
2023-01-02T09:57:29.493Z,100830.72
2023-01-02T10:00:20.185Z,100837.84
2023-01-02T10:03:01.489Z,100837.38
2023-01-02T10:05:33.371Z,100849.00
2023-01-02T10:08:44.288Z,100868.97
2023-01-02T10:11:20.117Z,100864.59
2023-01-02T10:16:46.428Z,100867.78
2023-01-02T10:19:22.497Z,100874.97
2023-01-02T10:21:52.458Z,100879.75
2023-01-02T10:24:34.531Z,100877.28
2023-01-02T10:27:01.936Z,100877.28
2023-01-02T10:29:42.397Z,100893.59
2023-01-02T10:32:16.987Z,100899.56
2023-01-02T10:34:53.201Z,100900.34
2023-01-02T10:37:19.796Z,100910.72
2023-01-02T10:39:50.455Z,100906.63
2023-01-02T10:42:17.227Z,100910.63
2023-01-02T10:44:45.695Z,100913.34
2023-01-02T10:47:28.656Z,100899.63
2023-01-02T10:49:56.954Z,100909.66
2023-01-02T10:52:39.021Z,100909.22
2023-01-02T10:55:06.292Z,100908.84
2023-01-02T10:57:51.536Z,100902.81
2023-01-02T11:00:22.583Z,100919.34
2023-01-02T11:02:57.904Z,100913.72
2023-01-02T11:05:28.759Z,100917.34
2023-01-02T11:07:56.038Z,100915.34
2023-01-02T11:10:49.899Z,100913.28
2023-01-02T11:13:18.950Z,100916.97
2023-01-02T11:16:03.306Z,100910.13
2023-01-02T11:18:32.061Z,100913.81
2023-01-02T11:21:04.293Z,100919.84
2023-01-02T11:23:44.864Z,100922.56
2023-01-02T11:26:22.620Z,100927.00
2023-01-02T11:28:51.638Z,100923.44
2023-01-02T11:31:19.139Z,100931.47
2023-01-02T11:33:46.851Z,100933.13
2023-01-02T11:36:13.265Z,100930.31
2023-01-02T11:38:48.345Z,100937.53
2023-01-02T11:41:51.451Z,100948.78
2023-01-02T11:44:50.507Z,100954.44
2023-01-02T11:47:17.691Z,100950.06
2023-01-02T11:49:48.423Z,100953.69
2023-01-02T11:52:19.299Z,100948.06
2023-01-02T11:55:07.791Z,100957.69
2023-01-02T11:57:52.540Z,100951.69
2023-01-02T12:00:21.277Z,100956.16
2023-01-02T12:02:50.796Z,100957.69
2023-01-02T12:05:47.491Z,100958.41
2023-01-02T12:08:40.384Z,100967.22
2023-01-02T12:11:27.535Z,100964.78
2023-01-02T12:14:06.249Z,100962.34
2023-01-02T12:16:44.554Z,100976.44
2023-01-02T12:19:38.291Z,100972.75
2023-01-02T12:22:23.345Z,100968.78
2023-01-02T12:25:10.185Z,100981.13
2023-01-02T12:27:46.283Z,100979.84
2023-01-02T12:30:16.701Z,100977.84
2023-01-02T12:32:55.197Z,100971.00
2023-01-02T12:35:32.443Z,100981.03
2023-01-02T12:38:02.157Z,101001.47
2023-01-02T12:40:57.353Z,100989.75
2023-01-02T12:43:36.923Z,100979.72
2023-01-02T12:46:32.011Z,100998.06
2023-01-02T12:49:13.337Z,101008.13
2023-01-02T12:51:56.315Z,101009.28
2023-01-02T12:54:40.705Z,101014.06
2023-01-02T12:57:29.376Z,101016.78
2023-01-02T13:00:20.205Z,101012.81
2023-01-02T13:03:05.398Z,101021.22
2023-01-02T13:05:42.173Z,101030.47
2023-01-02T13:08:20.580Z,101035.25
2023-01-02T13:10:48.009Z,101037.31
2023-01-02T13:13:16.420Z,101039.69
2023-01-02T13:15:50.127Z,101041.69
2023-01-02T13:19:00.631Z,101044.41
2023-01-02T13:21:27.453Z,101039.69
2023-01-02T13:23:56.648Z,101046.47
2023-01-02T13:26:27.631Z,101040.41
2023-01-02T13:29:18.669Z,101038.34
2023-01-02T13:31:53.970Z,101030.75
2023-01-02T13:34:32.012Z,101028.31
2023-01-02T13:37:08.070Z,101038.72
2023-01-02T13:39:40.745Z,101041.09
2023-01-02T13:42:38.850Z,101062.34
2023-01-02T13:45:42.339Z,101048.22
2023-01-02T13:48:38.092Z,101045.81
2023-01-02T13:51:13.811Z,101050.22
2023-01-02T13:53:43.448Z,101053.03
2023-01-02T13:56:09.872Z,101059.00
2023-01-02T13:58:43.071Z,101061.72
2023-01-02T14:01:21.705Z,101066.53
2023-01-02T14:04:09.493Z,101073.31
2023-01-02T14:06:48.546Z,101068.53
2023-01-02T14:09:24.343Z,101070.13
2023-01-02T14:12:00.471Z,101069.34
2023-01-02T14:14:42.969Z,101063.34
2023-01-02T14:17:32.392Z,101081.72
2023-01-02T14:20:17.223Z,101080.91
2023-01-02T14:22:57.116Z,101077.28
2023-01-02T14:25:24.503Z,101074.94
2023-01-02T14:27:57.176Z,101078.13
2023-01-02T14:30:31.668Z,101076.47
2023-01-02T14:33:00.368Z,101082.53
2023-01-02T14:35:38.000Z,101103.34
2023-01-02T14:38:13.150Z,101111.38
2023-01-02T14:40:44.177Z,101109.38
2023-01-02T14:43:37.513Z,101118.97
2023-01-02T14:46:03.796Z,101117.44
2023-01-02T14:49:24.998Z,101126.13
2023-01-02T14:52:05.650Z,101125.31
2023-01-02T14:54:44.876Z,101122.88
2023-01-02T14:57:29.596Z,101125.59
2023-01-02T14:59:58.581Z,101124.06
2023-01-02T15:02:38.252Z,101127.16
2023-01-02T15:05:12.279Z,101129.97
2023-01-02T15:07:55.767Z,101129.41
2023-01-02T15:10:23.829Z,101136.19
2023-01-02T15:13:04.392Z,101139.25
2023-01-02T15:15:41.144Z,101146.78
2023-01-02T15:18:18.361Z,101154.75
2023-01-02T15:20:50.595Z,101149.41
2023-01-02T15:23:23.378Z,101151.31
2023-01-02T15:25:49.894Z,101159.28
2023-01-02T15:28:42.867Z,101156.66
2023-01-02T15:31:16.188Z,101169.38
2023-01-02T15:33:42.635Z,101166.56
2023-01-02T15:36:19.515Z,101166.03
2023-01-02T15:38:47.564Z,101166.03
2023-01-02T15:41:19.131Z,101169.53
2023-01-02T15:44:06.120Z,101172.72
2023-01-02T15:46:32.553Z,101180.66
2023-01-02T15:49:00.372Z,101185.78
2023-01-02T15:51:40.147Z,101187.34
2023-01-02T15:54:13.406Z,101191.66
2023-01-02T15:56:41.069Z,101185.63
2023-01-02T15:59:33.611Z,101187.06
2023-01-02T16:02:02.808Z,101188.69
2023-01-02T16:04:32.517Z,101198.94
2023-01-02T16:07:12.804Z,101204.44
2023-01-02T16:09:40.164Z,101201.53
2023-01-02T16:12:12.144Z,101216.25
2023-01-02T16:14:39.470Z,101214.97
2023-01-02T16:17:14.936Z,101217.69
2023-01-02T16:19:58.811Z,101226.41
2023-01-02T16:22:30.948Z,101243.22
2023-01-02T16:25:08.988Z,101247.88
2023-01-02T16:27:58.743Z,101252.22
2023-01-02T16:30:30.474Z,101252.22
2023-01-02T16:33:01.411Z,101260.16
2023-01-02T16:35:30.305Z,101265.28
2023-01-02T16:38:19.056Z,101265.19
2023-01-02T16:41:00.752Z,101276.03
2023-01-02T16:43:30.369Z,101279.97
2023-01-02T16:45:57.829Z,101285.59
2023-01-02T16:48:28.590Z,101287.56
2023-01-02T16:50:57.306Z,101286.41
2023-01-02T16:53:27.945Z,101288.06
2023-01-02T16:55:55.065Z,101286.88
2023-01-02T16:58:22.711Z,101290.47
2023-01-02T17:00:49.543Z,101298.19
2023-01-02T17:03:25.521Z,101307.41
2023-01-02T17:06:09.858Z,101302.25
2023-01-02T17:08:36.364Z,101316.00
2023-01-02T17:11:03.054Z,101314.00
2023-01-02T17:13:29.888Z,101319.59
2023-01-02T17:15:57.305Z,101317.16
2023-01-02T17:18:24.259Z,101327.19
2023-01-02T17:20:51.069Z,101319.97
2023-01-02T17:23:19.569Z,101321.59
2023-01-02T17:25:46.567Z,101323.22
2023-01-02T17:28:13.568Z,101330.56
2023-01-02T17:30:45.174Z,101331.59
2023-01-02T17:33:12.098Z,101339.69
2023-01-02T17:35:38.683Z,101345.59
2023-01-02T17:38:05.156Z,101344.78
2023-01-02T17:40:31.658Z,101342.00
2023-01-02T17:42:58.565Z,101350.41
2023-01-02T17:45:25.424Z,101347.59
2023-01-02T17:48:09.283Z,101346.78
2023-01-02T17:50:37.873Z,101353.69
2023-01-02T17:53:04.414Z,101362.41
2023-01-02T17:55:30.923Z,101356.81
2023-01-02T17:57:57.342Z,101366.38
2023-01-02T18:00:24.011Z,101363.13
2023-01-02T18:02:52.681Z,101366.63
2023-01-02T18:05:20.806Z,101369.78
2023-01-02T18:07:47.143Z,101372.47
2023-01-02T18:10:19.451Z,101383.19
2023-01-02T18:12:46.977Z,101390.31
2023-01-02T18:15:15.001Z,101392.66
2023-01-02T18:17:41.388Z,101390.53
2023-01-02T18:20:16.920Z,101400.34
2023-01-02T18:22:48.920Z,101402.78
2023-01-02T18:25:16.469Z,101411.91
2023-01-02T18:27:44.779Z,101419.00
2023-01-02T18:30:16.308Z,101418.06
2023-01-02T18:32:45.076Z,101422.38
2023-01-02T18:35:56.640Z,101431.00
2023-01-02T18:38:30.818Z,101435.31
2023-01-02T18:40:57.276Z,101454.06
2023-01-02T18:43:35.677Z,101450.69
2023-01-02T18:46:11.046Z,101457.91
2023-01-02T18:48:39.203Z,101465.84
2023-01-02T18:51:11.722Z,101462.91
2023-01-02T18:53:44.913Z,101482.22
2023-01-02T18:56:15.637Z,101472.91
2023-01-02T18:58:49.298Z,101468.00
2023-01-02T19:01:35.234Z,101469.38
2023-01-02T19:04:28.283Z,101470.06
2023-01-02T19:06:59.944Z,101482.56
2023-01-02T19:09:38.377Z,101491.97
2023-01-02T19:12:32.683Z,101483.59
2023-01-02T19:15:30.847Z,101489.03
2023-01-02T19:18:00.044Z,101492.66
2023-01-02T19:20:29.139Z,101490.88
2023-01-02T19:22:59.853Z,101498.63
2023-01-02T19:25:26.407Z,101510.13
2023-01-02T19:27:54.859Z,101506.41
2023-01-02T19:30:35.717Z,101513.34
2023-01-02T19:33:25.076Z,101525.69
2023-01-02T19:36:03.220Z,101534.78
2023-01-02T19:38:32.212Z,101543.03
2023-01-02T19:40:58.753Z,101539.72
2023-01-02T19:43:27.845Z,101549.97
2023-01-02T19:45:55.025Z,101550.63
2023-01-02T19:48:21.854Z,101566.44
2023-01-02T19:50:51.043Z,101565.16
2023-01-02T19:53:17.696Z,101570.59
2023-01-02T19:55:45.018Z,101570.09
2023-01-02T19:58:11.407Z,101572.06
2023-01-02T20:00:37.782Z,101571.25
2023-01-02T20:03:04.927Z,101575.22
2023-01-02T20:05:31.446Z,101577.66
2023-01-02T20:07:59.326Z,101574.88
2023-01-02T20:10:28.286Z,101581.63
2023-01-02T20:12:56.028Z,101582.44
2023-01-02T20:15:27.080Z,101590.66
2023-01-02T20:17:55.018Z,101592.19
2023-01-02T20:20:24.715Z,101591.69
2023-01-02T20:22:54.083Z,101600.06
2023-01-02T20:25:25.949Z,101602.38
2023-01-02T20:27:54.159Z,101605.63
2023-01-02T20:30:24.488Z,101609.28
2023-01-02T20:32:51.742Z,101608.13
2023-01-02T20:35:20.689Z,101610.56
2023-01-02T20:37:48.916Z,101615.81
2023-01-02T20:40:15.530Z,101619.91
2023-01-02T20:42:42.119Z,101611.69
2023-01-02T20:45:10.763Z,101632.06
2023-01-02T20:47:37.333Z,101629.56
2023-01-02T20:50:05.940Z,101644.38
2023-01-02T20:52:32.380Z,101638.81
2023-01-02T20:54:59.237Z,101640.91
2023-01-02T20:57:25.693Z,101639.75
2023-01-02T20:59:52.641Z,101656.03
2023-01-02T21:02:19.163Z,101651.25
2023-01-02T21:04:46.010Z,101657.66
2023-01-02T21:07:12.558Z,101652.44
2023-01-02T21:09:38.900Z,101657.19
2023-01-02T21:12:25.409Z,101663.09
2023-01-02T21:14:51.757Z,101662.28
2023-01-02T21:17:19.396Z,101665.41
2023-01-02T21:19:45.861Z,101662.97
2023-01-02T21:22:12.218Z,101686.94
2023-01-02T21:24:38.566Z,101683.69
2023-01-02T21:27:12.964Z,101690.41
2023-01-02T21:29:40.584Z,101688.78
2023-01-02T21:32:07.185Z,101693.19
2023-01-02T21:34:33.554Z,101700.44
2023-01-02T21:37:00.230Z,101697.16
2023-01-02T21:39:29.702Z,101701.09
2023-01-02T21:42:14.356Z,101707.16
2023-01-02T21:44:40.889Z,101699.13
2023-01-02T21:47:07.609Z,101711.63
2023-01-02T21:49:35.667Z,101703.91
2023-01-02T21:52:03.534Z,101710.66
2023-01-02T21:54:31.489Z,101711.78
2023-01-02T21:56:59.507Z,101720.16
2023-01-02T21:59:26.949Z,101722.94
2023-01-02T22:01:55.289Z,101730.50
2023-01-02T22:04:23.069Z,101724.09
2023-01-02T22:07:30.052Z,101730.19
2023-01-02T22:09:37.797Z,101735.44
2023-01-02T22:12:07.318Z,101737.41
2023-01-02T22:14:37.379Z,101745.13
2023-01-02T22:17:09.218Z,101745.13
2023-01-02T22:19:36.438Z,101756.44
2023-01-02T22:22:03.586Z,101761.72
2023-01-02T22:24:30.329Z,101766.63
2023-01-02T22:27:00.354Z,101762.19
2023-01-02T22:29:51.511Z,101771.03
2023-01-02T22:32:15.121Z,101768.25
2023-01-02T22:34:44.125Z,101768.75
2023-01-02T22:37:15.536Z,101773.84
2023-01-02T22:39:45.024Z,101782.72
2023-01-02T22:45:30.106Z,101788.31
2023-01-02T22:48:00.765Z,101802.28
2023-01-02T22:50:32.178Z,101795.38
2023-01-02T22:52:59.788Z,101796.53
2023-01-02T22:55:27.608Z,101792.09
2023-01-02T22:57:54.262Z,101805.56
2023-01-02T23:00:22.815Z,101807.41
2023-01-02T23:02:49.535Z,101811.66
2023-01-02T23:05:18.437Z,101811.66
2023-01-02T23:07:45.656Z,101816.28
2023-01-02T23:10:14.741Z,101818.44
2023-01-02T23:12:45.586Z,101822.22
2023-01-02T23:15:14.087Z,101821.09
2023-01-02T23:17:59.057Z,101822.91
2023-01-02T23:20:27.034Z,101832.75
2023-01-02T23:22:53.878Z,101829.13
2023-01-02T23:25:20.689Z,101821.59
2023-01-02T23:27:49.493Z,101828.47
2023-01-02T23:30:16.394Z,101830.94
2023-01-02T23:32:43.084Z,101827.78
2023-01-02T23:35:11.021Z,101827.94
2023-01-02T23:37:37.372Z,101830.06
2023-01-02T23:40:06.105Z,101829.06
2023-01-02T23:42:32.953Z,101835.63
2023-01-02T23:44:59.586Z,101832.34
2023-01-02T23:47:27.371Z,101827.41
2023-01-02T23:49:53.760Z,101829.72
2023-01-02T23:52:21.654Z,101842.03
2023-01-02T23:54:48.263Z,101838.41
2023-01-02T23:57:14.639Z,101842.03
2023-01-02T23:59:40.997Z,101852.38
